Tiempo atmosférico en la estación meteorológica de Valdepeñas, Ciudad Real (700 m.)



Fecha
DESCASC
Temp. máxima en grados centígrados (hora)
DESCASC
Temp. mínima en grados centígrados (hora)
DESCASC
Temp. media en grados centígrados
DESCASC
Racha de viento máxima en m/sg (hora)
DESCASC
Velocidad máxima media en intervalos de 10 minutos(hora)
DESCASC
Precipitaciones diarias en mm
DESCASC
Precipitaciones de 00:00 a 06:00 en mm
DESCASC
Precipitaciones de 06:00 a 12:00 en mm
DESCASC
Precipitaciones de 12:00 a 18:00 en mm
DESCASC
Precipitaciones de 18:00 a 24:00 en mm
DESCASC
22-04-2019 16.4 (18:50) 7.7 (08:10) 12 8.89 (20:50) 4.44 (20:50) 3.6 2 1.2 0 0.4
21-04-2019 11.4 (15:10) 7.3 (06:30) 9.3 8.06 (13:00) 3.89 (13:00) 0.2 0 0 0.2 0
20-04-2019 10.6 (18:40) 7.8 (03:40) 9.2 12.22 (18:30) 5.83 (18:30) 17 9.4 2.8 4.8 0
19-04-2019 12.9 (16:10) 7.9 (22:10) 10.4 8.06 (16:40) 4.17 (19:00) 0 0 0 0 0
18-04-2019 16.2 (00:00) 9.2 (00:00) 12.7 7.22 (12:20) 3.89 (12:30) 21.4 3.2 14.8 0.4 3
17-04-2019 27.5 (16:20) 9.9 (00:00) 18.7 11.39 (17:10) 5 (18:30) 0 0 0 0 0
16-04-2019 24 (19:20) 7.6 (00:00) 15.8 7.5 (15:30) 3.33 (19:30) 0 0 0 0 0
15-04-2019 25 (16:20) 10.6 (00:00) 17.8 14.17 (16:50) 7.5 (18:00) 0 0 0 0 0
14-04-2019 23 (17:40) 8.6 (00:00) 15.8 7.78 (17:10) 2.78 (19:30) 0 0 0 0 0
13-04-2019 21.3 (17:40) 3.9 (00:00) 12.6 7.22 (20:30) 2.78 (19:10) 0 0 0 0 0
12-04-2019 17.9 (19:30) 2.4 (00:00) 10.1 8.61 (15:10) 2.78 (15:50) 0 0 0 0 0
11-04-2019 15.3 (17:20) 3.1 (00:00) 9.2 6.94 (12:00) 3.89 (12:20) 0 0 0 0 0
10-04-2019 13.8 (16:10) 6 (00:00) 9.9 9.72 (16:50) 4.72 (18:50) 5.6 0 0 2.8 2.8
09-04-2019 12.8 (16:50) 5.7 (00:00) 9.3 12.22 (18:40) 5.83 (16:50) 8.4 0.4 4.4 3.2 0.4
08-04-2019 15 (17:20) 9.2 (00:00) 12.1 10 (16:30) 5.83 (16:30) 2.8 0.6 0.8 0.4 1
07-04-2019 11.5 (16:50) 4.8 (00:00) 8.2 10.28 (06:50) 5 (06:50) 1.6 0.6 1 0 0
06-04-2019 10.4 (14:00) 4.2 (00:00) 7.3 13.33 (13:00) 6.39 (13:30) 1.6 0.6 0.2 0.8 0
05-04-2019 9.9 (00:40) 4.4 (00:00) 7.1 13.89 (15:10) 5.83 (12:30) 8.8 0 3 3.4 2.4
04-04-2019 16.4 (19:30) 3.2 (00:00) 9.8 8.89 (20:20) 4.17 (20:20) 0 0 0 0 0
03-04-2019 19 (16:00) 6.8 (00:00) 12.9 11.67 (15:40) 5.28 (14:10) 0 0 0 0 0
02-04-2019 19 (17:00) 8 (00:00) 13.5 7.5 (18:50) 3.06 (18:50) 0.2 0 0 0.2 0
01-04-2019 16.3 (18:10) 7.7 (00:00) 12 6.11 (19:50) 2.5 (20:00) 10.2 0 0.2 4.6 5.4
31-03-2019 12.8 (18:00) 8.4 (00:00) 10.6 6.67 (03:20) 3.89 (03:10) 6.4 1.2 5 0.2 0
30-03-2019 21 (16:20) 5.1 (00:00) 13 10.83 (19:30) 3.61 (07:10) 0 0 0 0 0
29-03-2019 19.1 (16:50) 1.5 (00:00) 10.3 6.39 (17:50) 4.17 (04:30) 0 0 0 0 0
28-03-2019 19.8 (16:30) 1 (00:00) 10.4 9.72 (16:00) 4.44 (05:40) 0 0 0 0 0
27-03-2019 18.3 (15:50) 1.6 (00:00) 9.9 10 (14:20) 5 (14:00) 0 0 0 0 0
26-03-2019 22 (14:50) 3.4 (00:00) 12.7 10.83 (18:00) 5.83 (10:30) 0 0 0 0 0
25-03-2019 21.8 (15:40) 4.2 (00:00) 13 9.17 (14:20) 4.44 (02:50) 0 0 0 0 0

Gráficas

Temp. máximas Temp. mínimas Temp. medias Precipitaciones Rachas de viento máximas Velocidades máximas media en intervalos de 10 minutos

Datos horarios

Fecha y hora oficial Temperatura (ºC) Velocidad del viento (km/h) Dirección del viento Racha (km/h) Dirección de racha Precipitación (mm) Presión (hPa) Tendencia (hPa) Humedad (%)
2019-04-23 23:00:00 5.7 8 Sur 29 Sur 0.2 924.5 2.1 85
2019-04-23 22:00:00 6 6 Sur 25 Sur 0 923.8 2.5 83
2019-04-23 21:00:00 6.2 12 Sur 27 Sur 0 922.9 2 82
2019-04-23 20:00:00 6.6 11 Sudoeste 36 Sudoeste 1 922.4 2.3 85
2019-04-23 19:00:00 10.8 17 Sur 31 Sur 0 921.3 1.4 59
2019-04-23 18:00:00 9.3 14 Sur 44 Sur 0.6 920.9 0.7 73
2019-04-23 17:00:00 12 19 Sur 37 Sur 0 920.1 -0.6 50
2019-04-23 16:00:00 13.4 16 Sur 36 Sur 0 919.9 -0.9 41
2019-04-23 15:00:00 11.1 17 Sudoeste 36 Sudoeste 0 920.2 0.6 59
2019-04-23 14:00:00 8.8 12 Sudoeste 32 Sudoeste 0 920.7 1.5 70
2019-04-23 13:00:00 8 14 Sudoeste 37 Sudoeste 0 920.8 2 79
2019-04-23 12:00:00 10.1 16 Sur 34 Sur 0 919.6 1.2 80
2019-04-23 11:00:00 8.5 6 Sudeste 40 Sur 1.4 919.2 0.8 87
2019-04-23 10:00:00 9.7 14 Sur -- -- -- 918.8 0.4 85
2019-04-23 09:00:00 10.6 9 Sur 29 Sur 0 918.4 -0.6 76
2019-04-23 08:00:00 10.6 13 Sur 28 Sur 0 918.4 -1.2 74
2019-04-23 07:00:00 10.6 15 Sur 29 Sur 0 918.4 -1 75
2019-04-23 06:00:00 10.7 10 Sudeste 25 Sur 0 919 -1.2 74
2019-04-23 05:00:00 10.8 16 Sur 31 Sur 0 919.6 -1 77
2019-04-23 04:00:00 10.8 13 Sur 32 Sur 0 919.4 -1.1 77
2019-04-23 03:00:00 11.2 10 Sur 27 Sudeste 0 920.2 -0.5 73
2019-04-23 02:00:00 11.2 10 Sur 22 Sudeste 0 920.6 -0.1 76
2019-04-23 01:00:00 11.8 10 Sudeste 19 Sur 0 920.5 -0.3 74
2019-04-23 00:00:00 12.1 8 Sudeste 22 Sudeste 0 920.7 -0.4 73
2019-04-22 23:00:00 12.5 8 Sudeste 21 Sudeste 0 920.7 -0.2 72
2019-04-22 22:00:00 12.5 6 Sudeste 14 Sudeste 0.2 920.8 -0.1 74
2019-04-22 21:00:00 13.5 8 Sudoeste 32 Sur 0.2 921.1 0.1 71
2019-04-22 20:00:00 15.3 11 Sur 20 Sur 0 920.9 -0.5 56
2019-04-22 19:00:00 16.3 4 Oeste 13 Oeste 0 920.9 -1.4 49
2019-04-22 18:00:00 15.9 7 Sudoeste 21 Sur 0 921 -1.7 47
2019-04-22 17:00:00 16.2 9 Sur 24 Oeste 0 921.4 -2 47
2019-04-22 16:00:00 15.7 11 Sudoeste 23 Sudoeste 0 922.3 -1.6 49
2019-04-22 15:00:00 14.7 11 Sudoeste 24 Sudoeste 0 922.7 -1.6 56
2019-04-22 14:00:00 13 7 Sudoeste 17 Sur 0 923.4 -0.8 66
2019-04-22 13:00:00 11.9 6 Sur 14 Sudoeste 0 923.9 -0.2 74
2019-04-22 12:00:00 10.5 4 Sudoeste 11 Sudoeste 0 924.3 0.2 84
2019-04-22 11:00:00 9.2 4 Sudoeste 8 Sudoeste 0 924.2 0.3 89
2019-04-22 10:00:00 8.5 3 Sur 6 Sur 0 924.1 0.2 92
2019-04-22 09:00:00 8 2 Oeste 6 Oeste 0.4 924.1 -0.1 93
2019-04-22 08:00:00 7.8 4 Noroeste 9 Noroeste 0.4 923.9 -0.8 93
2019-04-22 07:00:00 7.9 4 Noroeste 10 Noroeste 0.4 923.9 -1.3 92
2019-04-22 06:00:00 7.9 4 Noroeste 9 Noroeste 0 924.2 -1.9 91
2019-04-22 05:00:00 8 3 Norte 8 Nordeste 0.4 924.7 -2.1 91
2019-04-22 04:00:00 8.2 5 Norte 12 Norte 0.8 925.2 -1.8 91
2019-04-22 03:00:00 8.4 4 Norte 10 Noroeste 0.8 926.1 -1.3 91
2019-04-22 02:00:00 8.5 5 Norte 12 Norte 0 926.8 -1.1 90
2019-04-22 01:00:00 8.6 4 Noroeste 12 Noroeste 0 927 -0.8 89
2019-04-22 00:00:00 8.8 5 Noroeste 11 Norte 0 927.4 -0.1 89
2019-04-21 23:00:00 8.8 6 Norte 15 Norte 0 927.9 0.5 88
2019-04-21 22:00:00 9.1 6 Norte 20 Norte 0 927.8 0.2 86
2019-04-21 21:00:00 9.6 8 Norte 22 Norte 0 927.5 -0.4 82
2019-04-21 20:00:00 10.4 9 Norte 22 Norte 0 927.4 -0.7 77
2019-04-21 19:00:00 10.1 8 Noroeste 24 Norte 0 927.6 -0.8 79
2019-04-21 18:00:00 9.9 11 Norte 26 Norte 0 927.9 -0.5 78
2019-04-21 17:00:00 10.6 8 Norte 22 Norte 0.2 928.1 -0.8 68
2019-04-21 16:00:00 10.8 10 Norte 23 Nordeste 0 928.4 -0.9 66
2019-04-21 15:00:00 11.1 12 Norte 28 Norte 0 928.4 -1.3 63
2019-04-21 14:00:00 10.7 12 Norte 29 Norte 0 928.9 -0.9 66
2019-04-21 13:00:00 10.8 14 Norte 29 Nordeste 0 929.3 -0.6 67
2019-04-21 12:00:00 9.2 12 Norte 23 Norte 0 929.7 -0.4 76
2019-04-21 11:00:00 8.5 9 Norte 23 Norte 0 929.8 -0.4 81
2019-04-21 10:00:00 8.1 10 Norte 23 Norte 0 929.9 -0.5 84
2019-04-21 09:00:00 7.5 6 Norte 21 Norte 0 930.1 -0.7 87
2019-04-21 08:00:00 7.4 6 Noroeste 21 Norte 0 930.2 -1.1 85
2019-04-21 07:00:00 7.3 8 Norte 27 Norte 0 930.4 -1.6 85
2019-04-21 06:00:00 7.4 9 Norte 21 Noroeste 0 930.8 -2.1 85
2019-04-21 05:00:00 7.5 9 Norte 21 Norte 0 931.3 -2.3 86
2019-04-21 04:00:00 7.7 8 Norte 23 Noroeste 0 932 -2.1 86
2019-04-21 03:00:00 8.2 9 Norte 23 Norte 0 932.9 -1.7 83
2019-04-21 02:00:00 8.5 8 Norte 22 Norte 0 933.6 -1 84
2019-04-21 01:00:00 8.8 10 Norte 26 Noroeste 0 934.1 -0.3 82
2019-04-21 00:00:00 9.5 7 Norte 27 Norte 0 934.6 0.4 82
2019-04-20 23:00:00 10.2 14 Norte 30 Nordeste 0 934.6 0.6 64
2019-04-20 22:00:00 10.3 12 Norte 25 Norte 0 934.4 0.8 69
2019-04-20 21:00:00 10.5 12 Norte 31 Norte 0 934.2 0.6 67
2019-04-20 20:00:00 10.6 14 Norte 35 Norte 0 934 0.5 70
2019-04-20 19:00:00 10.6 15 Nordeste 44 Nordeste 0 933.6 -0.2 70
2019-04-20 18:00:00 10.5 19 Nordeste 42 Norte 0 933.6 -0.3 73
2019-04-20 17:00:00 10.2 16 Norte 38 Nordeste 0.8 933.5 -0.4 81
2019-04-20 16:00:00 10.3 18 Nordeste 35 Nordeste 1 933.8 0.1 79
2019-04-20 15:00:00 9.9 13 Norte 39 Nordeste 1.4 933.9 0.5 82
2019-04-20 14:00:00 10.4 17 Nordeste 37 Norte 0.6 933.9 0.8 75
2019-04-20 13:00:00 9.5 14 Norte 43 Nordeste 1 933.7 0.7 80
2019-04-20 12:00:00 9.7 18 Norte 38 Norte 0 933.4 0.5 76
2019-04-20 11:00:00 9.5 13 Norte 33 Norte 1.4 933.1 0.6 82
2019-04-20 10:00:00 9 5 Norte 16 Noroeste 0 933 1 92
2019-04-20 09:00:00 8.6 6 Noroeste 17 Noroeste 0.4 932.9 -0.1 93
2019-04-20 08:00:00 8.4 8 Noroeste 22 Noroeste 0.4 932.5 -1.2 93
2019-04-20 07:00:00 8.2 10 Noroeste 22 Noroeste 0.6 932 -2.6 93
2019-04-20 06:00:00 8.1 12 Noroeste 22 Noroeste 1.6 933 -2 93
2019-04-20 05:00:00 8 9 Noroeste 23 Norte 3.8 933.7 -1.8 93
2019-04-20 04:00:00 7.9 9 Norte 30 Norte 2.8 934.6 -1.2 92
2019-04-20 03:00:00 8.1 12 Norte 32 Norte 1 935 -1.1 89
2019-04-20 02:00:00 8.3 8 Norte 20 Norte 0.2 935.5 -0.5 87
2019-04-20 01:00:00 8.3 9 Norte 15 Norte 0 935.8 0.2 87
2019-04-20 00:00:00 8.1 5 Norte 15 Norte 0 936.1 1.2 85
2019-04-19 23:00:00 8 7 Norte 14 Norte 0 936 1.6 80
2019-04-19 22:00:00 8 7 Nordeste 25 Nordeste 0 935.6 1.8 79
2019-04-19 21:00:00 8.8 11 Nordeste 28 Norte 0 934.9 1.2 82
2019-04-19 20:00:00 9.2 11 Norte 29 Norte 0 934.4 0.7 84
2019-04-19 19:00:00 9.9 15 Norte 28 Nordeste 0 933.8 0.3 83
2019-04-19 18:00:00 10.6 12 Norte 28 Norte 0 933.7 -0.1 83
2019-04-19 17:00:00 11.7 10 Norte 29 Norte 0 933.7 0.2 74
2019-04-19 16:00:00 12.8 6 Norte 18 Nordeste 0 933.5 -0.8 61
2019-04-19 15:00:00 12.4 10 Nordeste 21 Nordeste 0 933.8 -0.5 60
2019-04-19 14:00:00 12.3 9 Nordeste 19 Este 0 933.5 -0.5 62
2019-04-19 13:00:00 11.3 12 Nordeste 18 Nordeste 0 934.3 0.7 69
2019-04-19 12:00:00 10.8 6 Nordeste 14 Norte 0 934.3 0.8 75
2019-04-19 11:00:00 10.3 6 Nordeste 13 Nordeste 0 934 1.2 78
2019-04-19 10:00:00 9.5 5 Nordeste 9 Este 0 933.6 1.4 84
2019-04-19 09:00:00 8.3 3 Este 6 Este 0 933.5 1.1 88
2019-04-19 08:00:00 8.2 5 Este 9 Este 0 932.8 0.4 88
2019-04-19 07:00:00 8.7 5 Sudeste 11 Sudeste 0 932.2 -0.1 88
2019-04-19 06:00:00 8.8 6 Sudeste 12 Sudeste 0 932.4 -0.1 87
2019-04-19 05:00:00 8.9 5 Sudeste 12 Sudeste 0 932.4 -0.3 87
2019-04-19 04:00:00 8.9 4 Sur 10 Sur 0 932.3 -0.2 86
2019-04-19 03:00:00 9 4 Sur 11 Sur 0 932.5 0.2 86
2019-04-19 02:00:00 9.2 6 Sudeste 13 Sur 0 932.7 0.6 85
2019-04-19 01:00:00 9.3 6 Sudeste 13 Sur 0 932.5 0.7 85
2019-04-19 00:00:00 9.8 5 Sur 11 Sur 0 932.3 1.4 87
2019-04-18 23:00:00 9.9 4 Sur 7 Sudeste 0 932.1 1.6 85
2019-04-18 22:00:00 9.9 4 Sudoeste 14 Sudoeste 0.2 931.8 1.7 83
2019-04-18 21:00:00 9.9 8 Sudoeste 22 Sudoeste 0 930.9 1.2 81
2019-04-18 20:00:00 10.5 11 Sur 20 Sur 2.8 930.5 0.5 78
2019-04-18 19:00:00 11.7 10 Sur 25 Sur 0 930.1 -0.5 78
2019-04-18 18:00:00 12.9 5 Sur 11 Sur 0 929.7 -1.4 62
2019-04-18 17:00:00 12.6 4 Sudoeste 16 Sur 0 930 -1.3 62
2019-04-18 16:00:00 12.3 4 Sudeste 17 Sur 0 930.6 -1.6 61
2019-04-18 15:00:00 11.6 6 Sudeste 18 Sudeste 0 931.1 -1.5 70
2019-04-18 14:00:00 10.1 8 Sudeste 20 Este 0 931.3 -1.4 79
2019-04-18 13:00:00 9.9 8 Este 26 Nordeste 0.4 932.2 0 86
2019-04-18 12:00:00 9.3 7 Este 20 Este 2.4 932.6 0.7 87
2019-04-18 11:00:00 9.3 6 Nordeste 20 Nordeste 4.4 932.7 1.6 88
2019-04-18 10:00:00 9.7 7 Sudeste 16 Sudeste 2 932.2 1.1 85
2019-04-18 09:00:00 10.2 5 Sudeste 14 Sudeste 1.6 931.9 0.8 85
2019-04-18 08:00:00 10.6 6 Sudeste 17 Sur 3.2 931.1 -0.4 86
2019-04-18 07:00:00 11.3 5 Sudeste 19 Sur 1.2 931.1 -0.7 86
2019-04-18 06:00:00 12.4 4 Sur 10 Sur 0.2 931.1 -1.4 88
2019-04-18 05:00:00 12.6 2 Sudeste 22 Este 1 931.5 -2.1 85
2019-04-18 04:00:00 12.6 9 Este 22 Este 1.4 931.8 -1.7 86
2019-04-18 03:00:00 13.2 4 Este 15 Sudeste 0.6 932.5 -0.5 82
2019-04-18 02:00:00 14.1 7 Sudeste 20 Sudeste 0 933.6 1.1 71
2019-04-18 01:00:00 15.3 9 Sur 18 Sur 0 933.5 1.8 64
2019-04-18 00:00:00 16.2 6 Sur 21 Sur 0 933 2.1 56
2019-04-17 23:00:00 17 8 Sur 20 Sur 0 932.5 2.7 53
2019-04-17 22:00:00 17.6 9 Sur 26 Sur 0 931.7 2.9 51
2019-04-17 21:00:00 18.8 12 Sudoeste 22 Sudoeste 0 930.9 3.9 46
2019-04-17 20:00:00 20 9 Sudoeste 35 Sudoeste 0 929.8 2.2 39
2019-04-17 19:00:00 22.8 17 Sudoeste 40 Sudeste 0 928.8 0.4 30
2019-04-17 18:00:00 26.1 14 Sudeste 41 Sudeste 0 927 -1.9 20
2019-04-17 17:00:00 26.4 11 Sudeste 31 Sur 0 927.6 -2.5 18
2019-04-17 16:00:00 26.9 11 Sudeste 32 Sudeste 0 928.4 -2.3 17
2019-04-17 15:00:00 26.7 13 Sudeste 32 Sudeste 0 928.9 -2.2 14
2019-04-17 14:00:00 25.6 15 Sur 33 Sudeste 0 930.1 -1.1 17
2019-04-17 13:00:00 24.6 14 Sur 30 Sur 0 930.7 -0.5 21
2019-04-17 12:00:00 22.8 8 Sudeste 27 Sudeste 0 931.1 -0.5 25
2019-04-17 11:00:00 19.7 9 Sudeste 19 Sudeste 0 931.2 -0.5 32
2019-04-17 10:00:00 14.1 3 Sur 11 Este 0 931.2 -0.8 60
2019-04-17 09:00:00 11.9 5 Nordeste 11 Nordeste 0 931.6 -0.8 65
2019-04-17 08:00:00 9.9 3 Nordeste 15 Nordeste 0 931.7 -0.9 72
2019-04-17 07:00:00 10.6 7 Nordeste 15 Nordeste 0 932 -1.1 70
2019-04-17 06:00:00 11.7 4 Nordeste 11 Nordeste 0 932.4 -1.2 67
2019-04-17 05:00:00 11.2 3 Nordeste 8 Nordeste 0 932.6 -1.4 68
2019-04-17 04:00:00 12.2 3 Nordeste 13 Nordeste 0 933.1 -0.5 64
2019-04-17 03:00:00 13.3 3 Nordeste 12 Nordeste 0 933.6 0 58
2019-04-17 02:00:00 13.9 5 Nordeste 10 Este 0 934 0.4 53
2019-04-17 01:00:00 15.4 2 Este 11 Este 0 933.6 0.3 46
2019-04-17 00:00:00 15.8 4 Este 8 Este 0 933.6 0.7 44
2019-04-16 23:00:00 17 4 Sudeste 7 Sudeste 0 933.6 0.8 41
2019-04-16 22:00:00 18.6 4 Sudeste 8 Sur 0 933.3 0.3 34
2019-04-16 21:00:00 21.2 5 Sur 17 Sur 0 932.9 -0.7 27
2019-04-16 20:00:00 23.4 8 Sur 22 Sudeste 0 932.8 -1.6 18
2019-04-16 19:00:00 23.7 7 Sudeste 19 Este 0 933 -2.5 14
2019-04-16 18:00:00 23.3 5 Este 17 Nordeste 0 933.6 -2.5 18
2019-04-16 17:00:00 22.6 5 Este 18 Este 0 934.4 -2.4 18
2019-04-16 16:00:00 21.9 6 Sur 27 Este 0 935.5 -1.7 25
2019-04-16 15:00:00 20.8 7 Sudeste 17 Sur 0 936.1 -1.6 28
2019-04-16 14:00:00 19.5 7 Este 18 Este 0 936.8 -1.2 29
2019-04-16 13:00:00 18 4 Nordeste 15 Norte 0 937.2 -0.4 38
2019-04-16 12:00:00 16.7 8 Nordeste 19 Nordeste 0 937.7 0.4 43
2019-04-16 11:00:00 15.4 5 Nordeste 13 Norte 0 938 0.8 55
2019-04-16 10:00:00 12.4 4 Norte 8 Nordeste 0 937.6 0.6 72
2019-04-16 09:00:00 9.1 4 Norte 9 Nordeste 0 937.3 0.2 81
2019-04-16 08:00:00 7.9 0 Calma 5 Sudeste 0 937.2 -0.1 83
2019-04-16 07:00:00 8.3 3 Sudeste 9 Este 0 937 -0.1 82
2019-04-16 06:00:00 8.7 2 Nordeste 10 Norte 0 937.1 0 80
2019-04-16 05:00:00 9.5 3 Nordeste 5 Oeste 0 937.3 0 79
2019-04-16 04:00:00 10 0 Calma 9 Sur 0 937.1 0.1 75
2019-04-16 03:00:00 11.1 5 Sur 8 Sur 0 937.1 0.4 72
2019-04-16 02:00:00 12.5 4 Oeste 17 Sudoeste 0 937.3 1.8 66
2019-04-16 01:00:00 13.8 6 Sudoeste 20 Oeste 0 937 2.4 61
2019-04-16 00:00:00 14.6 11 Sudoeste 24 Sudoeste 0 936.7 3.7 62
2019-04-15 23:00:00 15.5 12 Sudoeste 27 Sudoeste 0 935.5 3.6 58
2019-04-15 22:00:00 17.5 14 Sudoeste 29 Oeste 0 934.6 3.2 43
2019-04-15 21:00:00 19.2 14 Sudoeste 39 Sur 0 933 1.5 42
2019-04-15 20:00:00 21.8 20 Sur 44 Sur 0 931.9 0.2 20
2019-04-15 19:00:00 23.5 22 Sur 42 Sur 0 931.4 -0.7 20
2019-04-15 18:00:00 24.2 27 Sur 45 Sudoeste 0 931.5 -0.7 20
2019-04-15 17:00:00 24.3 24 Sur 51 Sur 0 931.7 -1.3 20
2019-04-15 16:00:00 24.9 18 Sur 44 Sur 0 932.1 -1.2 21
2019-04-15 15:00:00 24.1 22 Sur 45 Sur 0 932.2 -1.2 21
2019-04-15 14:00:00 23 21 Sur 35 Sur 0 933 0.1 23
2019-04-15 13:00:00 22.2 17 Sur 33 Sur 0 933.3 0.4 31
2019-04-15 12:00:00 21.6 9 Sur 22 Sur 0 933.4 0 39
2019-04-15 11:00:00 18.9 4 Sur 15 Sudeste 0 932.9 -0.5 56
2019-04-15 10:00:00 14.4 5 Nordeste 15 Nordeste 0 932.9 -0.6 74
2019-04-15 09:00:00 12 5 Nordeste 13 Nordeste 0 933.4 -0.3 78
2019-04-15 08:00:00 10.6 5 Norte 9 Norte 0 933.4 -0.8 82
2019-04-15 07:00:00 11.4 0 Calma 17 Nordeste 0 933.5 -1.1 81
2019-04-15 06:00:00 11.5 2 Norte 14 Norte 0 933.7 -1.4 80
2019-04-15 05:00:00 12.1 2 Nordeste 13 Nordeste 0 934.2 -1.3 79
2019-04-15 04:00:00 13 0 Calma 6 Norte 0 934.6 -1.1 75
2019-04-15 03:00:00 14.1 0 Calma 4 Sudeste 0 935.1 -0.9 70
2019-04-15 02:00:00 14.8 5 Sudeste 8 Sudeste 0 935.5 -0.6 68
2019-04-15 01:00:00 15.3 4 Sudeste 9 Sudeste 0 935.7 0 66
2019-04-15 00:00:00 15.4 4 Sudeste 9 Este 0 936 0.7 65
2019-04-14 23:00:00 16.3 2 Sudeste 5 Sudeste 0 936.1 1.1 60
2019-04-14 22:00:00 17.5 0 Calma 12 Oeste 0 935.7 0.9 55
2019-04-14 21:00:00 19.4 6 Sudoeste 21 Oeste 0 935.3 0.3 49
2019-04-14 20:00:00 22 6 Oeste 23 Sudoeste 0 935 -0.5 39
2019-04-14 19:00:00 22.5 7 Sudoeste 24 Sur 0 934.8 -1.4 37
2019-04-14 18:00:00 22.5 7 Sudoeste 28 Sudoeste 0 935 -1.5 36
2019-04-14 17:00:00 21.9 6 Sudoeste 17 Noroeste 0 935.5 -1.2 39
2019-04-14 16:00:00 21.2 7 Oeste 19 Sur 0 936.2 -1.2 42
2019-04-14 15:00:00 20.7 6 Sudoeste 22 Sudoeste 0 936.5 -1.3 42
2019-04-14 14:00:00 20.7 6 Sur 20 Sur 0 936.7 -1.3 44
2019-04-14 13:00:00 19.6 5 Sur 20 Sur 0 937.4 -0.3 46
2019-04-14 12:00:00 17.3 7 Sur 19 Sudoeste 0 937.8 0.2 52
2019-04-14 11:00:00 15.4 9 Sur 17 Sur 0 938 0.7 54
2019-04-14 10:00:00 13.2 4 Sur 8 Sur 0 937.7 0.4 54
2019-04-14 09:00:00 9.8 3 Sudeste 8 Sudeste 0 937.6 0 64
2019-04-14 08:00:00 9 2 Sudeste 8 Sudeste 0 937.3 -0.4 63
2019-04-14 07:00:00 9.2 3 Sudeste 7 Sudeste 0 937.3 -0.5 63
2019-04-14 06:00:00 9.3 4 Sudeste 6 Sudeste 0 937.6 -0.3 62
2019-04-14 05:00:00 10 4 Sudeste 7 Sudeste 0 937.7 -0.6 60
2019-04-14 04:00:00 9.7 0 Calma 6 Sudeste 0 937.8 -0.6 62
2019-04-14 03:00:00 11 3 Sudeste 9 Sudeste 0 937.9 -0.6 55
2019-04-14 02:00:00 11.5 5 Sudeste 9 Sudeste 0 938.3 0.1 54
2019-04-14 01:00:00 12.1 5 Sudeste 10 Sudeste 0 938.4 0.7 51
2019-04-14 00:00:00 14.3 6 Sur 14 Sudoeste 0 938.5 1.5 40
2019-04-13 23:00:00 14.9 4 Sudoeste 16 Sudoeste 0 938.2 1.6 40
2019-04-13 22:00:00 16.1 6 Sur 15 Sudoeste 0 937.7 1.4 40
2019-04-13 21:00:00 18.2 6 Sudoeste 26 Sudoeste 0 937 0.6 32
2019-04-13 20:00:00 20.1 8 Sudoeste 22 Sudoeste 0 936.6 0 28
2019-04-13 19:00:00 20.8 9 Sudoeste 23 Sudoeste 0 936.3 -0.8 23
2019-04-13 18:00:00 20.7 8 Sudoeste 22 Sudoeste 0 936.4 -1.2 22
2019-04-13 17:00:00 20.6 6 Oeste 21 Oeste 0 936.6 -1.4 23
2019-04-13 16:00:00 20.2 5 Sudoeste 18 Oeste 0 937.1 -1.4 22
2019-04-13 15:00:00 18.9 5 Sudoeste 18 Oeste 0 937.6 -1 27
2019-04-13 14:00:00 18.1 8 Sudoeste 23 Sudoeste 0 938 -0.7 27
2019-04-13 13:00:00 17.1 7 Oeste 20 Oeste 0 938.5 0.1 30
2019-04-13 12:00:00 15.9 4 Sur 9 Sur 0 938.6 0.6 38
2019-04-13 11:00:00 13.1 3 Noroeste 7 Sudoeste 0 938.7 1.1 46
2019-04-13 10:00:00 9.6 3 Sudeste 7 Este 0 938.4 1.2 66
2019-04-13 09:00:00 5.7 4 Norte 6 Norte 0 938 1 76
2019-04-13 08:00:00 3.9 3 Nordeste 7 Norte 0 937.6 0.7 79
2019-04-13 07:00:00 4.7 0 Calma 4 Nordeste 0 937.2 0.2 78
2019-04-13 06:00:00 5.3 2 Norte 4 Norte 0 937 -0.3 75
2019-04-13 05:00:00 6.3 2 Este 4 Este 0 936.9 -0.5 72
2019-04-13 04:00:00 7.1 0 Calma 4 Sudeste 0 937 -0.2 67
2019-04-13 03:00:00 7.9 2 Este 7 Norte 0 937.3 0.3 63
2019-04-13 02:00:00 9.5 4 Este 10 Sur 0 937.4 0.7 56
2019-04-13 01:00:00 10.1 5 Sudeste 8 Sudeste 0 937.2 1.2 53
2019-04-13 00:00:00 10.8 3 Sur 4 Sudeste 0 937 1.4 49
2019-04-12 23:00:00 11.6 3 Sudeste 6 Sudeste 0 936.7 1.2 45
2019-04-12 22:00:00 13.3 2 Este 6 Oeste 0 936 0.5 42
2019-04-12 21:00:00 15.6 3 Oeste 13 Oeste 0 935.6 -0.1 31
2019-04-12 20:00:00 17.6 5 Oeste 17 Oeste 0 935.5 -0.5 26
2019-04-12 19:00:00 17.6 6 Sudoeste 24 Noroeste 0 935.5 -1.3 26
2019-04-12 18:00:00 17.1 6 Oeste 21 Oeste 0 935.7 -1.5 30
2019-04-12 17:00:00 16.8 7 Noroeste 25 Noroeste 0 936 -1.5 30
2019-04-12 16:00:00 15.6 8 Sudoeste 31 Sur 0 936.8 -1.1 35
2019-04-12 15:00:00 15.3 4 Norte 17 Oeste 0 937.2 -0.9 35
2019-04-12 14:00:00 13.7 7 Oeste 15 Noroeste 0 937.5 -0.4 39
2019-04-12 13:00:00 13 7 Noroeste 15 Noroeste 0 937.9 0.1 42
2019-04-12 12:00:00 11.9 6 Norte 13 Norte 0 938.1 0.5 42
2019-04-12 11:00:00 10.5 4 Norte 10 Norte 0 937.9 0.5 51
2019-04-12 10:00:00 6.9 2 Sudoeste 5 Norte 0 937.8 0.8 70
2019-04-12 09:00:00 4.1 0 Calma 5 Norte 0 937.6 0.7 82
2019-04-12 08:00:00 2.5 0 Calma 4 Norte 0 937.4 0.3 84
2019-04-12 07:00:00 3.4 2 Norte 3 Norte 0 937 0 84
2019-04-12 06:00:00 3.8 0 Calma 4 Sudeste 0 936.9 -0.3 82
2019-04-12 05:00:00 4.3 0 Calma 2 Sur 0 937.1 -0.3 82
2019-04-12 04:00:00 5 0 Calma 4 Sudeste 0 937 -0.2 80
2019-04-12 03:00:00 5.7 0 Calma 5 Norte 0 937.2 0.1 78
2019-04-12 02:00:00 6.4 0 Calma 3 Sur 0 937.4 0.5 74
2019-04-12 01:00:00 7.3 3 Este 6 Este 0 937.2 0.7 69
2019-04-12 00:00:00 8.4 2 Este 8 Sur 0 937.1 1.2 65
2019-04-11 23:00:00 9.1 6 Sudeste 9 Sudeste 0 936.9 1.3 63
2019-04-11 22:00:00 10.3 5 Sur 14 Sur 0 936.5 0.8 57
2019-04-11 21:00:00 13.2 3 Sudoeste 14 Sur 0 935.9 0.2 41
2019-04-11 20:00:00 14.6 8 Sur 15 Noroeste 0 935.6 -0.4 35
2019-04-11 19:00:00 14.5 3 Noroeste 14 Norte 0 935.7 -0.6 34
2019-04-11 18:00:00 15 6 Noroeste 14 Norte 0 935.7 -1 32
2019-04-11 17:00:00 14.4 5 Oeste 18 Oeste 0 936 -1 36
2019-04-11 16:00:00 14.2 7 Noroeste 22 Noroeste 0 936.3 -1 41
2019-04-11 15:00:00 13.7 10 Noroeste 23 Noroeste 0 936.7 -0.7 37
2019-04-11 14:00:00 12.7 8 Noroeste 21 Norte 0 937 -0.3 47
2019-04-11 13:00:00 11.8 9 Norte 24 Norte 0 937.3 0.1 52
2019-04-11 12:00:00 10.3 12 Norte 25 Noroeste 0 937.4 0.4 58
2019-04-11 11:00:00 8.6 9 Noroeste 17 Noroeste 0 937.3 0.8 66
2019-04-11 10:00:00 5.7 3 Oeste 5 Noroeste 0 937.2 1.1 91
2019-04-11 09:00:00 3.7 2 Sur 5 Sudeste 0 937 1 93
2019-04-11 08:00:00 3.3 2 Sudeste 5 Sudeste 0 936.5 0.9 93
2019-04-11 07:00:00 3.2 0 Calma 4 Este 0 936.1 0.7 92
2019-04-11 06:00:00 3.3 0 Calma 4 Sudeste 0 936 0.3 91
2019-04-11 05:00:00 4.1 0 Calma 4 Sudeste 0 935.6 -0.1 91
2019-04-11 04:00:00 4.7 0 Calma 5 Sudeste 0 935.4 -0.3 90
2019-04-11 03:00:00 5.2 4 Sudeste 5 Sudeste 0 935.7 0.3 89
2019-04-11 02:00:00 5.8 4 Sudeste 6 Este 0 935.7 0.1 88
2019-04-11 01:00:00 6.5 4 Sudeste 8 Sudeste 0 935.7 0.7 87
2019-04-11 00:00:00 6.7 3 Sudeste 7 Sudeste 0 935.4 1.4 86
2019-04-10 23:00:00 6.8 3 Sudeste 9 Sudeste 0 935.6 1.8 85
2019-04-10 22:00:00 7.4 2 Sur 9 Oeste 0 935 1.1 82
2019-04-10 21:00:00 7.9 3 Sudoeste 12 Sudeste 0.2 934 1.2 84
2019-04-10 20:00:00 7.9 3 Norte 24 Norte 1.8 933.8 0.7 80
2019-04-10 19:00:00 7.9 12 Noroeste 35 Noroeste 0.8 933.9 1.1 79
2019-04-10 18:00:00 10 3 Oeste 24 Oeste 0.2 932.8 -0.6 71
2019-04-10 17:00:00 9.1 13 Oeste 35 Noroeste 2.6 933.1 -0.7 73
2019-04-10 16:00:00 13.7 11 Sudoeste 27 Sudoeste 0 932.8 -1.4 38
2019-04-10 15:00:00 11.8 9 Sudoeste 30 Sudoeste 0 933.4 -1.1 47
2019-04-10 14:00:00 11.2 8 Sudoeste 23 Sudoeste 0 933.8 -0.6 54
2019-04-10 13:00:00 10.5 8 Oeste 23 Sudoeste 0 934.2 -0.2 59
2019-04-10 12:00:00 8.9 8 Sudoeste 23 Oeste 0 934.5 0.4 66
2019-04-10 11:00:00 7.6 9 Sudoeste 22 Oeste 0 934.4 0.7 74
2019-04-10 10:00:00 6.7 6 Sudoeste 18 Oeste 0 934.4 0.6 79
2019-04-10 09:00:00 6.2 5 Sudoeste 16 Sudoeste 0 934.1 0.3 82
2019-04-10 08:00:00 6.1 9 Sudoeste 22 Sudoeste 0 933.7 -0.3 83
2019-04-10 07:00:00 6.1 6 Sudoeste 20 Sudoeste 0 933.8 -0.2 85
2019-04-10 06:00:00 6.4 6 Sudoeste 23 Sudoeste 0 933.8 -0.4 84
2019-04-10 05:00:00 6.4 5 Sudoeste 17 Sudoeste 0 934 -0.3 84
2019-04-10 04:00:00 6.7 8 Sudoeste 18 Sudoeste 0 934 -0.4 82
2019-04-10 03:00:00 7 6 Sudoeste 15 Sudoeste 0 934.2 -0.1 80
2019-04-10 02:00:00 7.2 5 Sudoeste 14 Sudoeste 0 934.3 0.1 79
2019-04-10 01:00:00 7.4 4 Sudoeste 13 Sur 0 934.4 0.9 79
2019-04-10 00:00:00 7.8 4 Sudeste 12 Sur 0 934.3 1.4 80
2019-04-09 23:00:00 8.4 3 Sur 31 Sudoeste 0.4 934.2 1.4 80
2019-04-09 22:00:00 9.7 11 Sudoeste 33 Sudoeste 0 933.5 0.8 67
2019-04-09 21:00:00 10.6 13 Sudoeste 29 Sudoeste 0 932.9 0.4 63
2019-04-09 20:00:00 12 15 Sudoeste 38 Sudoeste 0 932.8 0.1 54
2019-04-09 19:00:00 12.2 15 Sudoeste 44 Sudoeste 0 932.7 -0.6 55
2019-04-09 18:00:00 11.6 13 Sudoeste 42 Sudoeste 1.2 932.5 -1.7 71
2019-04-09 17:00:00 12.1 20 Sudoeste 42 Sudoeste 0 932.7 -1 61
2019-04-09 16:00:00 11.2 16 Sudoeste 34 Sudoeste 0.2 933.3 -1 62
2019-04-09 15:00:00 7.3 13 Sudoeste 37 Sudoeste 1.8 934.2 -0.6 81
2019-04-09 14:00:00 11.5 15 Sudoeste 32 Sur 0 933.7 -1.2 49
2019-04-09 13:00:00 11.1 14 Sudoeste 35 Sur 0 934.3 -0.8 54
2019-04-09 12:00:00 10.1 13 Sudoeste 36 Sur 0 934.8 -0.1 62
2019-04-09 11:00:00 9.4 14 Sudoeste 29 Sur 0 934.9 0.2 68
2019-04-09 10:00:00 8.1 10 Sur 20 Sur 0 935.1 0.5 79
2019-04-09 09:00:00 6.6 8 Sur 14 Sur 4.4 934.9 0.3 85
2019-04-09 08:00:00 5.8 5 Sur 12 Sur 0 934.7 0.1 85
2019-04-09 07:00:00 5.9 5 Sur 13 Sur 0 934.6 0 85
2019-04-09 06:00:00 5.7 4 Sur 12 Sur 0 934.6 0.1 84
2019-04-09 05:00:00 6.1 4 Sudoeste 9 Sur 0 934.6 0.4 83
2019-04-09 04:00:00 7 5 Sur 15 Sudoeste 0.2 934.6 0.5 80
2019-04-09 03:00:00 7.9 10 Sudoeste 20 Sudoeste 0 934.5 0.9 77
2019-04-09 02:00:00 8.5 10 Sudoeste 23 Sudoeste 0 934.2 1.1 74
2019-04-09 01:00:00 9.1 12 Sudoeste 24 Sudoeste 0.2 934.1 1.5 67
2019-04-09 00:00:00 9.3 10 Sur 15 Sur 0.2 933.6 1.3 84
2019-04-08 23:00:00 10.6 5 Sur 12 Sur 0.2 933.1 1.1 83
2019-04-08 22:00:00 10.8 5 Sur 22 Sur 0.2 932.6 0.7 83
2019-04-08 21:00:00 11.8 11 Sur 28 Sur 0.2 932.3 0.2 74
2019-04-08 20:00:00 13.3 15 Sur 28 Sur 0.2 932 -0.5 72
2019-04-08 19:00:00 13.6 15 Sur 30 Sur 0 931.9 -1.1 72
2019-04-08 18:00:00 12.3 14 Sur 31 Sur 0.2 932.1 -1.2 84
2019-04-08 17:00:00 14.4 12 Sudoeste 36 Sudoeste 0 932.5 -1.3 69
2019-04-08 16:00:00 12.4 14 Sur 30 Sur 0 933 -0.7 82
2019-04-08 15:00:00 12.8 11 Sudoeste 26 Sudoeste 0.2 933.3 -0.7 79
2019-04-08 14:00:00 12 10 Sudoeste 34 Sudoeste 0 933.8 0 82
2019-04-08 13:00:00 14 18 Sur 27 Sur 0 933.7 -0.2 62
2019-04-08 12:00:00 13.4 12 Sudoeste 32 Sur 0 934 0.1 66
2019-04-08 11:00:00 11.8 14 Sur 24 Sudoeste 0 933.8 0.4 77
2019-04-08 10:00:00 9.9 9 Sur 18 Sudoeste 0.2 933.9 0.8 85
2019-04-08 09:00:00 9.5 9 Sur 18 Sur 0 933.9 0.8 89
2019-04-08 08:00:00 9.2 9 Sur 15 Sur 0.4 933.4 0 91
2019-04-08 07:00:00 9.4 8 Sur 19 Sur 0.2 933.1 -0.4 92
2019-04-08 06:00:00 9.4 6 Sur 14 Sudeste 0.2 933.1 -0.8 90
2019-04-08 05:00:00 9.5 6 Sur 14 Sur 0 933.4 -0.6 89
2019-04-08 04:00:00 9.5 8 Sur 18 Sur 0 933.5 -0.4 89
2019-04-08 03:00:00 9.6 7 Sur 15 Sur 0 933.9 0 90
2019-04-08 02:00:00 9.6 9 Sur 18 Sur 0.2 934 0.2 91
2019-04-08 01:00:00 9.5 6 Sur 14 Sur 0.2 933.9 0.3 89
2019-04-08 00:00:00 9.6 6 Sur 15 Sur 0 933.9 0.4 85
2019-04-07 23:00:00 9.6 6 Sur 16 Sur 0 933.8 0.3 81
2019-04-07 22:00:00 9.9 8 Sur 19 Sur 0 933.6 0.6 77
2019-04-07 21:00:00 10 6 Sur 22 Sur 0 933.5 0.4 78
2019-04-07 20:00:00 10.4 13 Sur 25 Sur 0 933.5 0.7 72
2019-04-07 19:00:00 11 10 Sudoeste 22 Sudoeste 0 933 0.2 62
2019-04-07 18:00:00 10.6 12 Sudoeste 29 Sudoeste 0 933.1 0.1 65
2019-04-07 17:00:00 11.4 14 Sudoeste 32 Sudoeste 0 932.8 0 56
2019-04-07 16:00:00 11 13 Sudoeste 31 Sudoeste 0 932.8 0.3 59
2019-04-07 15:00:00 9.9 17 Sudoeste 32 Sudoeste 0 933 0.7 62
2019-04-07 14:00:00 10.5 11 Sudoeste 27 Sudoeste 0 932.8 1.2 58
2019-04-07 13:00:00 9.2 11 Sudoeste 32 Sudoeste 0 932.5 1.4 65
2019-04-07 12:00:00 7.7 10 Sudoeste 27 Sudoeste 0 932.3 2 72
2019-04-07 11:00:00 7.1 13 Sudoeste 33 Sudoeste 0 931.6 2.3 77
2019-04-07 10:00:00 6.5 12 Sudoeste 28 Sudoeste 0 931.1 2.6 81
2019-04-07 09:00:00 6.1 13 Sudoeste 30 Sudoeste 0.2 930.3 2.3 83
2019-04-07 08:00:00 6 14 Sudoeste 37 Sudoeste 0.4 929.3 1.5 82
2019-04-07 07:00:00 5.9 16 Sudoeste 37 Sudoeste 0.4 928.5 0.9 86
2019-04-07 06:00:00 5.9 13 Sudoeste 28 Sudoeste 0.4 928 0.2 87
2019-04-07 05:00:00 5.7 9 Sudoeste 26 Sudoeste 0.2 927.8 -0.1 87
2019-04-07 04:00:00 6 13 Sudoeste 27 Sudoeste 0 927.6 -0.4 79
2019-04-07 03:00:00 5.5 10 Sur 27 Sudoeste 0 927.8 0.1 79
2019-04-07 02:00:00 5.2 10 Sudoeste 22 Sudoeste 0 927.9 0.4 79
2019-04-07 01:00:00 4.9 10 Sur 24 Sur 0 928 1 80
2019-04-07 00:00:00 5.3 12 Sur 26 Sur 0 927.7 1.2 79
2019-04-06 23:00:00 5.5 13 Sur 28 Sudoeste 0 927.5 1.6 77
2019-04-06 22:00:00 6.2 12 Sur 34 Sudoeste 0 927 1.6 71
2019-04-06 21:00:00 6.5 15 Sudoeste 38 Sudoeste 0 926.5 1.4 69
2019-04-06 20:00:00 7.1 16 Sudoeste 34 Sudoeste 0 925.9 1.2 66
2019-04-06 19:00:00 7 14 Sudoeste 39 Sudoeste 0 925.4 0.3 70
2019-04-06 18:00:00 7.5 13 Sudoeste 44 Sur 0 925.1 -0.1 72
2019-04-06 17:00:00 9.8 17 Sudoeste 36 Sudoeste 0.2 924.7 -0.3 60
2019-04-06 16:00:00 7.2 21 Sur 47 Sudoeste 0.2 925.1 -0.2 77
2019-04-06 15:00:00 8.8 21 Sudoeste 47 Sudoeste 0.4 925.2 -0.7 65
2019-04-06 14:00:00 10 19 Sudoeste 42 Sur 0 925 -0.5 54
2019-04-06 13:00:00 8.6 22 Sur 48 Sur 0 925.3 -0.3 67
2019-04-06 12:00:00 6.4 17 Sur 36 Sur 0.2 925.9 0.6 82
2019-04-06 11:00:00 7.1 13 Sur 30 Sudoeste 0 925.5 0.6 77
2019-04-06 10:00:00 5.7 8 Sur 22 Sur 0 925.6 1.2 85
2019-04-06 09:00:00 4.9 9 Sur 22 Sur 0 925.3 1.5 86
2019-04-06 08:00:00 4.7 9 Sur 21 Sur 0 924.9 1 85
2019-04-06 07:00:00 4.5 8 Sur 21 Sur 0 924.4 0.4 84
2019-04-06 06:00:00 4.3 13 Sur 23 Sudoeste 0 923.8 -0.3 83
2019-04-06 05:00:00 4.4 11 Sur 28 Sudoeste 0.2 923.9 -0.2 85
2019-04-06 04:00:00 4.7 8 Sur 26 Sudoeste 0 924 0.2 82
2019-04-06 03:00:00 4.9 12 Sur 21 Sur 0 924.1 0.5 83
2019-04-06 02:00:00 4.6 8 Sur 18 Sur 0 924.1 1.1 85
2019-04-06 01:00:00 4.7 13 Sur 25 Sudoeste 0.4 923.8 1.4 83
2019-04-06 00:00:00 5.7 17 Sur 30 Sur 0.6 923.6 1.9 74
2019-04-05 23:00:00 5.5 6 Sudeste 13 Sudeste 0.4 923 1.9 66
2019-04-05 22:00:00 5.2 4 Sur 15 Sudoeste 0.4 922.4 2.2 66
2019-04-05 21:00:00 6.4 9 Sudoeste 34 Sudoeste 0.4 921.7 2 56
2019-04-05 20:00:00 7.8 17 Sudoeste 41 Sudoeste 0.2 921.1 1.3 58
2019-04-05 19:00:00 9.3 17 Sudoeste 36 Sudoeste 0.4 920.2 -0.4 43
2019-04-05 18:00:00 8.2 14 Sudoeste 28 Sudoeste 0.4 919.7 -0.6 64
2019-04-05 17:00:00 8.4 12 Sur 26 Sur 0.8 919.8 -0.6 71
2019-04-05 16:00:00 4.8 5 Sudoeste 50 Sudoeste 1.6 920.6 0.3 87
2019-04-05 15:00:00 7.8 14 Sur 36 Sudeste 0.2 920.3 -0.7 80
2019-04-05 14:00:00 7.2 18 Sur 36 Sur 0 920.4 -1.2 79
2019-04-05 13:00:00 7.1 19 Sudeste 39 Sur 0.4 920.3 -0.9 79
2019-04-05 12:00:00 6.8 13 Sudeste 28 Sudeste 1 921 -0.3 83
2019-04-05 11:00:00 6.5 12 Sur 19 Sur 1.2 921.6 0.4 87
2019-04-05 10:00:00 6.5 7 Sur 24 Sur 0.8 921.2 -0.1 86
2019-04-05 09:00:00 6.7 13 Sur 33 Sur 0 921.3 -0.2 79
2019-04-05 08:00:00 7.1 10 Sur 30 Sur 0 921.2 -0.4 66
2019-04-05 07:00:00 6.8 6 Sudeste 23 Sur 0 921.3 -0.7 68
2019-04-05 06:00:00 6.8 10 Sur 22 Sur 0 921.5 -0.5 69
2019-04-05 05:00:00 7.1 9 Sur 22 Sur 0 921.6 -0.3 66
2019-04-05 04:00:00 7.3 12 Sudeste 30 Sur 0 922 0.3 62
2019-04-05 03:00:00 8.1 14 Sur 26 Sur 0 922 0.3 55
2019-04-05 02:00:00 9 12 Sur 23 Sur 0 921.9 0.2 47
2019-04-05 01:00:00 9.7 12 Sur 29 Sur 0 921.7 0.3 40
2019-04-05 00:00:00 9.5 8 Sur 18 Sur 0 921.7 0.8 46
2019-04-04 23:00:00 10.7 10 Sur 22 Sur 0 921.7 1.1 42
2019-04-04 22:00:00 12 10 Sur 24 Sur 0 921.4 0.6 35
2019-04-04 21:00:00 13.9 12 Sur 32 Sur 0 920.9 -0.5 31
2019-04-04 20:00:00 15.9 9 Sur 23 Sur 0 920.6 -1.4 26
2019-04-04 19:00:00 15.8 3 Sur 15 Sur 0 920.8 -2.1 24
2019-04-04 18:00:00 15.9 4 Oeste 21 Sudoeste 0 921.4 -2.2 23
2019-04-04 17:00:00 15.2 5 Este 17 Sur 0 922 -2.2 24
2019-04-04 16:00:00 14.2 5 Sudoeste 14 Oeste 0 922.9 -1.9 25
2019-04-04 15:00:00 13.2 5 Sudoeste 15 Nordeste 0 923.6 -1.3 24
2019-04-04 14:00:00 12.4 4 Sudeste 17 Norte 0 924.2 -0.7 25
2019-04-04 13:00:00 11.7 8 Nordeste 18 Noroeste 0 924.8 0 28
2019-04-04 12:00:00 10.3 8 Norte 22 Norte 0 924.9 0.4 36
2019-04-04 11:00:00 8.1 6 Norte 12 Norte 0 924.9 1.1 48
2019-04-04 10:00:00 5.5 4 Noroeste 9 Nordeste 0 924.8 1.5 53
2019-04-04 09:00:00 4.2 4 Nordeste 11 Norte 0 924.5 1.4 54
2019-04-04 08:00:00 3.4 6 Nordeste 14 Norte 0 923.8 0.7 57
2019-04-04 07:00:00 3.6 4 Nordeste 10 Nordeste 0 923.3 0.1 59
2019-04-04 06:00:00 4.9 8 Norte 18 Norte 0 923.1 -0.4 52
2019-04-04 05:00:00 5.7 5 Norte 14 Noroeste 0 923.1 -0.7 51
2019-04-04 04:00:00 6.6 5 Norte 14 Noroeste 0 923.2 -0.9 51
2019-04-04 03:00:00 6.2 0 Calma 5 Sur 0 923.5 -0.9 69
2019-04-04 02:00:00 7.5 2 Sudeste 6 Sudeste 0 923.8 -0.4 64
2019-04-04 01:00:00 8.5 4 Sudeste 8 Noroeste 0 924.1 0.6 60
2019-04-04 00:00:00 10.4 6 Noroeste 14 Noroeste 0 924.4 1.6 49
2019-04-03 23:00:00 11 2 Sudoeste 21 Sudoeste 0 924.2 1.5 54
2019-04-03 22:00:00 12.4 6 Sudoeste 22 Oeste 0 923.5 0.8 48
2019-04-03 21:00:00 13.6 9 Oeste 26 Sudoeste 0 922.8 0 38
2019-04-03 20:00:00 15.9 11 Oeste 34 Oeste 0 922.7 -0.7 34
2019-04-03 19:00:00 17.6 14 Sudoeste 41 Sudoeste 0 922.7 -1.5 26
2019-04-03 18:00:00 18.6 14 Sudoeste 40 Sudoeste 0 922.8 -2.2 25
2019-04-03 17:00:00 18.6 12 Sudoeste 40 Sudoeste 0 923.4 -2.5 25
2019-04-03 16:00:00 18.7 16 Sudoeste 42 Sur 0 924.2 -2.6 25
2019-04-03 15:00:00 18.2 15 Sudoeste 37 Sur 0 925 -2.5 26
2019-04-03 14:00:00 17.3 12 Sudoeste 31 Sur 0 925.9 -2.3 33
2019-04-03 13:00:00 16.2 15 Sudoeste 35 Sudoeste 0 926.8 -1.9 41
2019-04-03 12:00:00 15.2 12 Sudoeste 25 Sudoeste 0 927.5 -1.7 48
2019-04-03 11:00:00 13.1 8 Sur 16 Sur 0 928.2 -1.3 59
2019-04-03 10:00:00 10.3 6 Sur 12 Sur 0 928.7 -0.9 71
2019-04-03 09:00:00 7.7 4 Sudeste 8 Sudeste 0 929.2 -0.7 79
2019-04-03 08:00:00 6.9 3 Sudeste 8 Sur 0 929.5 -1.2 79
2019-04-03 07:00:00 7.2 3 Sudeste 7 Sudeste 0 929.6 -1.7 79
2019-04-03 06:00:00 7.6 4 Sudeste 9 Sudeste 0 929.9 -2.1 78
2019-04-03 05:00:00 7.8 0 Calma 8 Sur 0 930.7 -1.7 78
2019-04-03 04:00:00 8.7 7 Sudeste 10 Sudeste 0 931.3 -1.7 77
2019-04-03 03:00:00 9.3 6 Sudeste 10 Sudeste 0 932 -1.2 74
2019-04-03 02:00:00 9.4 0 Calma 5 Sur 0 932.4 -0.9 76
2019-04-03 01:00:00 10.4 4 Sudeste 8 Sudeste 0 933 -0.1 74
2019-04-03 00:00:00 11.3 4 Sudeste 7 Sur 0 933.2 0.6 73
2019-04-02 23:00:00 12.3 5 Sudeste 12 Sudeste 0 933.3 0.7 68
2019-04-02 22:00:00 13.2 5 Sudeste 8 Sudeste 0 933.1 0.5 66
2019-04-02 21:00:00 14.7 3 Sur 9 Sudeste 0 932.6 0.2 55
2019-04-02 20:00:00 15.6 5 Sur 23 Sudoeste 0 932.6 -0.4 48
2019-04-02 19:00:00 15.5 10 Oeste 27 Oeste 0 932.6 -1.1 55
2019-04-02 18:00:00 17.7 8 Sur 22 Sur 0 932.4 -2 38
2019-04-02 17:00:00 18.9 9 Sur 22 Sur 0 933 -2.1 34
2019-04-02 16:00:00 17.7 6 Sudoeste 19 Sur 0 933.7 -2.1 41
2019-04-02 15:00:00 15.9 6 Sudoeste 19 Sur 0 934.4 -1.8 51
2019-04-02 14:00:00 15.2 6 Sudoeste 18 Sur 0.2 935.1 -0.8 56
2019-04-02 13:00:00 13.7 5 Oeste 15 Sudoeste 0 935.8 0.3 66
2019-04-02 12:00:00 12.4 6 Sudoeste 18 Sudoeste 0 936.2 1.1 68
2019-04-02 11:00:00 11.2 6 Sur 12 Sur 0 935.9 1.2 80
2019-04-02 10:00:00 9.4 4 Sudeste 12 Sudeste 0 935.5 1.1 87
2019-04-02 09:00:00 8.4 5 Sudeste 10 Sudeste 0 935.1 0.8 89
2019-04-02 08:00:00 8.1 3 Sudeste 7 Sur 0 934.7 0 89
2019-04-02 07:00:00 8.4 4 Sur 9 Sudeste 0 934.4 -0.6 88
2019-04-02 06:00:00 9 5 Sudeste 8 Sudeste 0 934.3 -0.7 88
2019-04-02 05:00:00 9.9 6 Sudeste 9 Sudeste 0 934.7 -0.5 88
2019-04-02 04:00:00 10.3 5 Sur 9 Sudeste 0 935 -0.4 88
2019-04-02 03:00:00 10.5 2 Sur 5 Sur 0 935 -0.2 87
2019-04-02 02:00:00 10.8 0 Calma 4 Oeste 0 935.2 0.3 87
2019-04-02 01:00:00 11 0 Calma 6 Norte 0 935.4 1.2 84
2019-04-02 00:00:00 11 0 Calma 6 Sur 0 935.2 1.8 85
2019-04-01 23:00:00 11 0 Calma 6 Norte 0 934.9 2.1 86
2019-04-01 22:00:00 11.2 5 Nordeste 8 Norte 0 934.2 2.4 83
2019-04-01 21:00:00 11.7 3 Este 14 Sur 4.2 933.4 1.3 82
2019-04-01 20:00:00 13.1 9 Sur 22 Sur 1.2 932.8 0.4 74
2019-04-01 19:00:00 15.4 4 Nordeste 11 Nordeste 0 931.8 -1.1 57
2019-04-01 18:00:00 16.2 4 Sudoeste 12 Noroeste 0 932.1 -1.2 55
2019-04-01 17:00:00 15.2 5 Este 12 Norte 0 932.4 -0.8 64
2019-04-01 16:00:00 12.6 6 Nordeste 14 Este 2.2 932.9 -0.6 87
2019-04-01 15:00:00 12 2 Sudeste 19 Sudoeste 2.4 933.3 -0.2 79
2019-04-01 14:00:00 13.5 4 Oeste 13 Sudoeste 0 933.2 0.2 66
2019-04-01 13:00:00 12.8 5 Sudoeste 13 Sudoeste 0 933.5 1.1 71
2019-04-01 12:00:00 12.8 5 Sur 10 Sur 0 933.5 1.4 76
2019-04-01 11:00:00 10.7 2 Sudeste 5 Sudeste 0 933 1.2 88
2019-04-01 10:00:00 9.2 2 Nordeste 6 Nordeste 0.2 932.4 1 91
2019-04-01 09:00:00 8.8 2 Nordeste 5 Sudeste 0 932.1 0.7 90
2019-04-01 08:00:00 8.7 3 Este 5 Este 0 931.8 0.3 91
2019-04-01 07:00:00 8.5 2 Este 6 Este 0 931.4 0 91
2019-04-01 06:00:00 8.5 2 Sudeste 4 Sudeste 0 931.4 -0.1 91
2019-04-01 05:00:00 8.4 3 Sudoeste 8 Sur 0 931.5 -0.1 91
2019-04-01 04:00:00 8.3 0 Calma 5 Sur 0 931.4 0 91
2019-04-01 03:00:00 7.7 0 Calma 6 Oeste 0 931.5 0 90
2019-04-01 02:00:00 9.2 3 Sur 5 Sur 0 931.6 0.4 87
2019-04-01 01:00:00 10 2 Norte 5 Norte 0 931.4 0.7 84
2019-04-01 00:00:00 10.3 2 Norte 10 Norte 0 931.5 1.3 83
2019-03-31 23:00:00 10.4 5 Nordeste 13 Norte 0 931.2 1.4 81
2019-03-31 22:00:00 10.6 6 Nordeste 14 Norte 0 930.7 1 81
2019-03-31 21:00:00 10.9 7 Norte 16 Norte 0 930.2 0.3 80
2019-03-31 20:00:00 11.9 5 Noroeste 13 Noroeste 0 929.8 -0.2 75
2019-03-31 19:00:00 12.2 4 Norte 13 Norte 0 929.7 -0.7 69
2019-03-31 18:00:00 12.8 7 Norte 18 Noroeste 0 929.9 -1.1 69
2019-03-31 17:00:00 12.3 8 Norte 18 Norte 0 930 -1.6 66
2019-03-31 16:00:00 12.2 5 Norte 17 Norte 0 930.4 -1.6 66
2019-03-31 15:00:00 12 8 Nordeste 18 Nordeste 0 931 -1 70
2019-03-31 14:00:00 11.1 8 Nordeste 20 Nordeste 0 931.6 -0.2 77
2019-03-31 13:00:00 9.7 10 Nordeste 21 Nordeste 0.2 932 0.5 86
2019-03-31 12:00:00 9.1 9 Nordeste 23 Nordeste 1 932 0.7 90
2019-03-31 11:00:00 9 12 Nordeste 22 Nordeste 0.8 931.8 0.6 89
2019-03-31 10:00:00 9.9 6 Nordeste 14 Nordeste 0.6 931.5 0 90
2019-03-31 09:00:00 9.9 6 Nordeste 14 Nordeste 0.2 931.3 -1 92
2019-03-31 08:00:00 9.6 4 Nordeste 8 Nordeste 0.8 931.2 -1.3 91
2019-03-31 07:00:00 8.8 5 Nordeste 15 Norte 1.6 931.5 -1.3 89
2019-03-31 06:00:00 10.2 5 Norte 10 Norte 1.2 932.3 -1 85
2019-03-31 05:00:00 9.7 6 Norte 17 Nordeste 0 932.5 -1.3 76
2019-03-31 03:00:00 10.6 13 Nordeste 20 Nordeste 0 933.3 -0.8 61
2019-03-31 01:00:00 11.5 8 Nordeste 15 Nordeste 0 933.8 -0.3 61
2019-03-31 00:00:00 12.2 8 Nordeste 17 Nordeste 0 933.9 0.3 58
2019-03-30 23:00:00 12.7 10 Norte 19 Nordeste 0 934.1 1.1 58
2019-03-30 22:00:00 14.3 9 Nordeste 24 Este 0 934.1 1.1 51
2019-03-30 21:00:00 15.1 13 Nordeste 27 Nordeste 0 933.6 0.7 46
2019-03-30 20:00:00 16.3 12 Nordeste 39 Sudeste 0 933 0.1 37
2019-03-30 19:00:00 19 11 Noroeste 23 Norte 0 933 -0.5 27
2019-03-30 18:00:00 20.4 8 Noroeste 24 Noroeste 0 932.9 -1.6 25
2019-03-30 17:00:00 20.2 11 Noroeste 21 Noroeste 0 932.9 -2.6 25
2019-03-30 16:00:00 20.2 8 Noroeste 18 Norte 0 933.5 -3.1 24
2019-03-30 15:00:00 19.8 5 Noroeste 22 Norte 0 934.5 -3 24
2019-03-30 14:00:00 18.8 7 Noroeste 25 Norte 0 935.5 -2.6 27
2019-03-30 13:00:00 17.6 8 Noroeste 21 Noroeste 0 936.6 -1.6 29
2019-03-30 12:00:00 16 6 Noroeste 15 Noroeste 0 937.5 -0.7 32
2019-03-30 11:00:00 14.6 6 Norte 15 Norte 0 938.1 -0.1 34
2019-03-30 10:00:00 12 4 Nordeste 13 Nordeste 0 938.2 0.2 37
2019-03-30 09:00:00 8.1 8 Nordeste 19 Nordeste 0 938.2 0 48
2019-03-30 08:00:00 5.5 8 Norte 19 Nordeste 0 938.2 -0.2 57
2019-03-30 07:00:00 5.7 12 Nordeste 18 Nordeste 0 938 -0.4 58
2019-03-30 06:00:00 6.8 5 Norte 9 Nordeste 0 938.2 -0.5 57
2019-03-30 05:00:00 7.7 0 Calma 15 Nordeste 0 938.4 -0.6 56
2019-03-30 04:00:00 8.2 8 Nordeste 16 Nordeste 0 938.4 -1.1 57
2019-03-30 03:00:00 9.2 8 Nordeste 20 Nordeste 0 938.7 -0.8 55
2019-03-30 02:00:00 9.5 10 Nordeste 19 Nordeste 0 939 -0.8 53
2019-03-30 01:00:00 9.3 9 Nordeste 15 Norte 0 939.5 0.2 53
2019-03-30 00:00:00 9.2 9 Nordeste 13 Nordeste 0 939.5 0.8 53
2019-03-29 23:00:00 10.7 4 Nordeste 20 Nordeste 0 939.8 1.5 48
2019-03-29 22:00:00 12 10 Norte 20 Nordeste 0 939.3 1.1 41
2019-03-29 21:00:00 13.1 3 Sudeste 9 Sudeste 0 938.7 0.5 29
2019-03-29 20:00:00 15.7 5 Sudeste 14 Sur 0 938.3 -0.1 23
2019-03-29 19:00:00 18.1 6 Sur 18 Sur 0 938.2 -0.5 19
2019-03-29 18:00:00 18.4 10 Sur 23 Sur 0 938.2 -1.1 17
2019-03-29 17:00:00 18.7 7 Sudeste 23 Sur 0 938.4 -1.6 17
2019-03-29 16:00:00 18.7 8 Sudoeste 21 Sudeste 0 938.7 -1.9 14
2019-03-29 15:00:00 18.4 5 Este 21 Sur 0 939.3 -1.9 14
2019-03-29 14:00:00 17.4 8 Este 23 Sudeste 0 940 -1.7 14
2019-03-29 13:00:00 16.9 5 Oeste 14 Sudeste 0 940.6 -1.5 14
2019-03-29 12:00:00 15.4 5 Norte 16 Nordeste 0 941.2 -0.9 19
2019-03-29 11:00:00 14.2 3 Sudeste 20 Este 0 941.7 -0.2 24
2019-03-29 10:00:00 10.1 6 Norte 12 Nordeste 0 942.1 0.5 28
2019-03-29 09:00:00 5.2 7 Nordeste 16 Nordeste 0 942.1 1 39
2019-03-29 08:00:00 1.8 6 Nordeste 14 Nordeste 0 941.9 0.8 47
2019-03-29 07:00:00 3 3 Noroeste 19 Nordeste 0 941.6 0.3 43
2019-03-29 06:00:00 3.2 11 Nordeste 22 Nordeste 0 941.1 -0.6 45
2019-03-29 05:00:00 3.3 12 Nordeste 21 Nordeste 0 941.1 -0.7 46
2019-03-29 04:00:00 4.3 7 Nordeste 15 Norte 0 941.3 -0.7 41
2019-03-29 03:00:00 4.7 4 Nordeste 13 Nordeste 0 941.7 -0.4 39
2019-03-29 02:00:00 6.1 3 Este 11 Norte 0 941.8 -0.5 35
2019-03-29 01:00:00 7.8 0 Calma 11 Este 0 942 -0.2 30
2019-03-29 00:00:00 8.5 5 Este 13 Nordeste 0 942.1 0.5 28
2019-03-28 23:00:00 9.9 4 Nordeste 13 Este 0 942.3 1.4 24
2019-03-28 22:00:00 11.5 8 Este 26 Este 0 942.2 1.7 22
2019-03-28 21:00:00 13.2 16 Nordeste 30 Este 0 941.6 1.4 19
2019-03-28 20:00:00 14.8 9 Nordeste 25 Nordeste 0 940.9 0.8 19
2019-03-28 19:00:00 17.1 13 Nordeste 30 Nordeste 0 940.5 -0.2 16
2019-03-28 18:00:00 18.4 12 Nordeste 25 Este 0 940.2 -1.2 14
2019-03-28 17:00:00 19.1 10 Nordeste 27 Nordeste 0 940.1 -2 14
2019-03-28 16:00:00 19.6 13 Este 35 Este 0 940.7 -2 14
2019-03-28 15:00:00 19.3 11 Nordeste 30 Este 0 941.4 -1.9 13
2019-03-28 14:00:00 18.8 12 Este 28 Este 0 942.1 -1.6 14
2019-03-28 13:00:00 18 11 Este 29 Este 0 942.7 -1.2 13
2019-03-28 12:00:00 16.5 13 Nordeste 29 Este 0 943.3 -0.7 13
2019-03-28 11:00:00 14.8 9 Nordeste 22 Este 0 943.7 0.1 14
2019-03-28 10:00:00 10.8 7 Norte 15 Norte 0 943.9 0.5 22
2019-03-28 09:00:00 4.5 8 Nordeste 19 Norte 0 944 0.9 34
2019-03-28 08:00:00 1.9 10 Nordeste 22 Nordeste 0 943.6 0.8 41
2019-03-28 07:00:00 1.1 15 Nordeste 25 Nordeste 0 943.4 0.7 50
2019-03-28 06:00:00 2.1 13 Norte 22 Nordeste 0 943.1 0.5 55
2019-03-28 05:00:00 2.5 14 Nordeste 21 Nordeste 0 942.8 0.1 58
2019-03-28 04:00:00 3.4 15 Nordeste 22 Nordeste 0 942.7 -0.1 54
2019-03-28 03:00:00 4.5 14 Nordeste 22 Nordeste 0 942.6 0.3 47
2019-03-28 02:00:00 8.2 6 Nordeste 15 Nordeste 0 942.7 1 40
2019-03-28 01:00:00 7.8 8 Nordeste 17 Nordeste 0 942.8 1.4 39
2019-03-28 00:00:00 10 9 Nordeste 17 Nordeste 0 942.3 1.6 32
2019-03-27 23:00:00 9.4 7 Este 16 Nordeste 0 941.7 1.7 28
2019-03-27 22:00:00 10 12 Nordeste 19 Nordeste 0 941.4 2 24
2019-03-27 21:00:00 12.5 8 Nordeste 14 Nordeste 0 940.7 1.7 20
2019-03-27 20:00:00 14.6 8 Nordeste 33 Nordeste 0 940 1.1 18
2019-03-27 19:00:00 16.4 14 Nordeste 32 Nordeste 0 939.4 0.3 16
2019-03-27 18:00:00 17.3 13 Nordeste 31 Nordeste 0 939 -0.4 14
2019-03-27 17:00:00 17.8 13 Nordeste 33 Nordeste 0 938.9 -1.2 13
2019-03-27 16:00:00 17.9 14 Norte 32 Nordeste 0 939.1 -1.6 12
2019-03-27 15:00:00 17.5 13 Nordeste 36 Nordeste 0 939.4 -1.6 11
2019-03-27 14:00:00 16.7 18 Nordeste 36 Nordeste 0 940.1 -0.9 12
2019-03-27 13:00:00 15.8 13 Nordeste 28 Norte 0 940.7 -0.1 14
2019-03-27 12:00:00 14.2 12 Nordeste 32 Nordeste 0 941 0.5 20
2019-03-27 11:00:00 13.1 11 Este 31 Nordeste 0 941 0.7 24
2019-03-27 10:00:00 11 12 Este 27 Nordeste 0 940.8 1.3 30
2019-03-27 09:00:00 5.7 13 Nordeste 25 Nordeste 0 940.5 1.8 46
2019-03-27 08:00:00 2 12 Nordeste 20 Nordeste 0 940.3 1.8 57
2019-03-27 07:00:00 2.2 7 Norte 23 Nordeste 0 939.5 0.9 61
2019-03-27 06:00:00 4.7 13 Nordeste 29 Nordeste 0 938.7 0.2 57
2019-03-27 05:00:00 4.8 8 Nordeste 20 Nordeste 0 938.5 -0.1 66
2019-03-27 04:00:00 5 4 Norte 14 Nordeste 0 938.6 0.4 70
2019-03-27 03:00:00 5.6 4 Norte 14 Norte 0 938.5 0.8 68
2019-03-27 02:00:00 6.7 8 Norte 17 Nordeste 0 938.6 1.2 66
2019-03-27 01:00:00 6.8 11 Nordeste 18 Nordeste 0 938.2 1.3 64
2019-03-27 00:00:00 7.9 13 Nordeste 18 Nordeste 0 937.7 1.3 60
2019-03-26 23:00:00 9.9 7 Nordeste 13 Nordeste 0 937.4 2.3 55
2019-03-26 22:00:00 12.2 6 Nordeste 18 Nordeste 0 936.9 2.7 49
2019-03-26 21:00:00 14.1 8 Nordeste 26 Este 0 936.4 2.9 44
2019-03-26 20:00:00 16.2 14 Nordeste 32 Nordeste 0 935.1 2 38
2019-03-26 19:00:00 18.6 14 Nordeste 35 Nordeste 0 934.2 1.1 28
2019-03-26 18:00:00 20.1 15 Nordeste 39 Nordeste 0 933.5 0.2 24
2019-03-26 17:00:00 21.2 15 Nordeste 34 Nordeste 0 933.1 -0.9 19
2019-03-26 16:00:00 21.9 14 Nordeste 33 Nordeste 0 933.1 -1.2 15
2019-03-26 15:00:00 21.6 13 Nordeste 33 Nordeste 0 933.3 -1.5 13
2019-03-26 14:00:00 21.6 14 Este 38 Nordeste 0 934 -0.7 13
2019-03-26 13:00:00 20.8 14 Nordeste 36 Nordeste 0 934.3 -0.6 14
2019-03-26 12:00:00 19.7 15 Nordeste 37 Nordeste 0 934.8 -0.3 15
2019-03-26 11:00:00 17.7 14 Nordeste 38 Nordeste 0 934.7 -0.3 19
2019-03-26 10:00:00 14.2 13 Norte 32 Nordeste 0 934.9 0.2 28
2019-03-26 09:00:00 7 5 Noroeste 12 Norte 0 935.1 0.5 48
2019-03-26 08:00:00 3.7 0 Calma 4 Norte 0 935 0.4 56
2019-03-26 07:00:00 3.7 0 Calma 14 Norte 0 934.7 0 54
2019-03-26 06:00:00 4.4 7 Norte 13 Norte 0 934.6 -0.4 47
2019-03-26 05:00:00 5.6 5 Norte 16 Norte 0 934.6 -0.6 42
2019-03-26 04:00:00 7.2 6 Norte 13 Norte 0 934.7 -0.7 41
2019-03-26 03:00:00 8.2 5 Norte 19 Nordeste 0 935 -0.5 38
2019-03-26 02:00:00 9 13 Nordeste 19 Norte 0 935.2 -0.2 36
2019-03-26 01:00:00 9.2 9 Nordeste 22 Nordeste 0 935.4 0.1 35
2019-03-26 00:00:00 10.2 14 Nordeste 22 Nordeste 0 935.5 0.6 32
2019-03-25 23:00:00 11.6 11 Nordeste 21 Nordeste 0 935.4 0.7 30
2019-03-25 22:00:00 15.2 9 Nordeste 22 Este 0 935.3 0.9 23
2019-03-25 21:00:00 15.6 6 Nordeste 17 Norte 0 934.9 0.7 22
2019-03-25 20:00:00 17.9 9 Norte 23 Norte 0 934.7 0.1 18
2019-03-25 19:00:00 20.2 12 Norte 27 Norte 0 934.4 -0.9 15
2019-03-25 18:00:00 21 11 Norte 24 Nordeste 0 934.2 -1.9 14
2019-03-25 17:00:00 21.4 11 Norte 33 Norte 0 934.6 -2.6 13
2019-03-25 16:00:00 21.5 9 Nordeste 29 Norte 0 935.3 -2.7 13
2019-03-25 15:00:00 21.3 11 Norte 33 Norte 0 936.1 -2.7 13
2019-03-25 14:00:00 20.2 12 Nordeste 28 Nordeste 0 937.2 -2.2 13
2019-03-25 13:00:00 19.7 12 Nordeste 27 Norte 0 938 -1.5 15
2019-03-25 12:00:00 18.5 12 Nordeste 28 Nordeste 0 938.8 -0.6 19
2019-03-25 11:00:00 16.6 11 Nordeste 24 Norte 0 939.4 0.1 23
2019-03-25 10:00:00 13 9 Nordeste 21 Nordeste 0 939.5 0.5 36
2019-03-25 09:00:00 7.7 8 Nordeste 15 Nordeste 0 939.4 0.5 52
2019-03-25 08:00:00 4.2 8 Nordeste 16 Nordeste 0 939.3 0.4 60
2019-03-25 07:00:00 5 8 Nordeste 20 Nordeste 0 939 0 57
2019-03-25 06:00:00 5.5 13 Nordeste 20 Nordeste 0 938.9 -0.6 57
2019-03-25 05:00:00 5.4 14 Nordeste 22 Nordeste 0 938.9 -0.8 59
2019-03-25 04:00:00 5.9 12 Nordeste 21 Nordeste 0 939 -0.8 58
2019-03-25 03:00:00 6.6 14 Nordeste 23 Nordeste 0 939.5 -0.2 57
2019-03-25 02:00:00 8 13 Nordeste 20 Nordeste 0 939.7 -0.1 51
2019-03-25 01:00:00 8.8 12 Nordeste 20 Nordeste 0 939.8 -0.1 48
2019-03-25 00:00:00 9.8 8 Nordeste 15 Norte 0 939.7 0.3 45